Time;durP1;ratioP1;P1;durP2;ratioP2;P2;SDS_P1;SDS_P2;PMS_P1;PMS_P2;Temp;Humidity;BMP_temperature;BMP_pressure;BME280_temperature;BME280_humidity;BME280_pressure;Samples;Min_cycle;Max_cycle;Signal;HPM_P1;HPM_P2
2022/04/19 00:01:18;;;;;;;1.88;1.02;;;;;;;;;;5062988;28;20048;-89
2022/04/19 00:03:44;;;;;;;2.30;1.48;;;;;;;;;;5060842;28;20049;-89
2022/04/19 00:06:12;;;;;;;1.98;1.45;;;;;;;;;;5060451;28;20600;-89
2022/04/19 00:08:39;;;;;;;2.55;1.30;;;;;;;;;;5057463;28;20095;-89
2022/04/19 00:11:05;;;;;;;2.35;1.15;;;;;;;;;;5058662;28;20209;-89
2022/04/19 00:13:32;;;;;;;3.33;1.55;;;;;;;;;;5060247;28;20041;-89
2022/04/19 00:15:59;;;;;;;4.28;1.73;;;;;;;;;;5059282;28;20044;-89
2022/04/19 00:18:26;;;;;;;2.55;1.60;;;;;;;;;;5055375;28;20063;-89
2022/04/19 00:20:54;;;;;;;4.25;1.58;;;;;;;;;;5056224;28;20409;-89
2022/04/19 00:23:22;;;;;;;3.28;1.52;;;;;;;;;;5050756;28;20095;-90
2022/04/19 00:25:52;;;;;;;3.25;1.38;;;;;;;;;;5059318;28;20265;-89
2022/04/19 00:28:19;;;;;;;3.60;1.75;;;;;;;;;;5046902;28;20037;-89
2022/04/19 00:30:47;;;;;;;3.08;1.90;;;;;;;;;;5056027;28;20041;-89
2022/04/19 00:33:14;;;;;;;3.55;1.85;;;;;;;;;;5048464;28;20041;-89
2022/04/19 00:35:40;;;;;;;3.47;1.50;;;;;;;;;;5057678;28;20511;-89
2022/04/19 00:38:09;;;;;;;4.43;1.75;;;;;;;;;;5060077;28;20611;-89
2022/04/19 00:40:37;;;;;;;3.00;1.60;;;;;;;;;;5051071;28;20483;-89
2022/04/19 00:43:05;;;;;;;2.45;1.70;;;;;;;;;;5052857;28;20068;-89
2022/04/19 00:45:34;;;;;;;2.05;1.20;;;;;;;;;;5054712;28;20488;-89
2022/04/19 00:48:01;;;;;;;3.17;1.60;;;;;;;;;;5054430;28;20060;-89
2022/04/19 00:50:28;;;;;;;2.25;1.10;;;;;;;;;;5059571;28;20476;-89
2022/04/19 00:52:55;;;;;;;2.95;1.98;;;;;;;;;;5055840;28;20052;-89
2022/04/19 00:55:22;;;;;;;3.33;1.67;;;;;;;;;;5056138;28;20059;-89
2022/04/19 00:57:51;;;;;;;2.92;1.50;;;;;;;;;;5055822;28;20044;-89
2022/04/19 01:00:17;;;;;;;3.20;1.75;;;;;;;;;;5051429;28;20149;-89
2022/04/19 01:02:44;;;;;;;4.95;1.77;;;;;;;;;;5060983;28;20056;-89
2022/04/19 01:05:11;;;;;;;3.15;1.55;;;;;;;;;;5059615;28;20045;-89
2022/04/19 01:07:38;;;;;;;2.08;1.25;;;;;;;;;;5057084;28;20044;-89
2022/04/19 01:10:06;;;;;;;3.65;1.50;;;;;;;;;;5051467;28;20517;-89
2022/04/19 01:15:18;;;;;;;5.88;1.92;;;;;;;;;;5056281;28;20064;-89
2022/04/19 01:17:45;;;;;;;3.78;1.70;;;;;;;;;;5063782;28;20595;-89
2022/04/19 01:20:13;;;;;;;2.35;1.40;;;;;;;;;;5055967;28;20592;-89
2022/04/19 01:22:42;;;;;;;4.03;2.15;;;;;;;;;;5057950;28;20047;-89
2022/04/19 01:25:10;;;;;;;2.50;1.60;;;;;;;;;;5053209;28;20060;-89
2022/04/19 01:27:37;;;;;;;2.22;1.48;;;;;;;;;;5055799;28;20126;-89
2022/04/19 01:30:06;;;;;;;4.80;1.70;;;;;;;;;;5054936;28;20052;-89
2022/04/19 01:32:33;;;;;;;4.40;1.60;;;;;;;;;;5058089;28;20051;-89
2022/04/19 01:35:07;;;;;;;3.10;1.42;;;;;;;;;;5058985;28;20404;-89
2022/04/19 01:37:34;;;;;;;3.13;1.23;;;;;;;;;;5042934;28;20087;-89
2022/04/19 01:40:18;;;;;;;3.00;1.48;;;;;;;;;;5054733;28;20934;-89
2022/04/19 01:42:46;;;;;;;5.05;1.88;;;;;;;;;;5052926;28;20094;-89
2022/04/19 01:45:13;;;;;;;2.85;1.27;;;;;;;;;;5055693;28;20099;-89
2022/04/19 01:47:41;;;;;;;3.50;1.38;;;;;;;;;;5058811;28;20543;-89
2022/04/19 01:50:09;;;;;;;4.50;1.80;;;;;;;;;;5059233;28;20048;-89
2022/04/19 01:52:36;;;;;;;3.33;1.73;;;;;;;;;;5056856;28;20597;-89
2022/04/19 01:55:09;;;;;;;4.13;1.50;;;;;;;;;;5058832;28;20072;-89
2022/04/19 01:57:36;;;;;;;3.63;1.70;;;;;;;;;;5053260;28;20044;-89
2022/04/19 02:00:04;;;;;;;2.38;1.48;;;;;;;;;;5054501;28;20044;-89
2022/04/19 02:02:31;;;;;;;3.05;1.85;;;;;;;;;;5055263;28;20094;-89
2022/04/19 02:04:57;;;;;;;2.65;1.42;;;;;;;;;;5057641;28;20075;-89
2022/04/19 02:07:24;;;;;;;3.63;2.00;;;;;;;;;;5054653;28;20059;-89
2022/04/19 02:09:51;;;;;;;3.50;1.90;;;;;;;;;;5058419;28;20090;-89
2022/04/19 02:12:19;;;;;;;4.00;1.90;;;;;;;;;;5054384;28;20447;-90
2022/04/19 02:14:46;;;;;;;2.90;1.35;;;;;;;;;;5053159;28;20049;-89
2022/04/19 02:17:13;;;;;;;3.88;1.50;;;;;;;;;;5058312;28;20049;-89
2022/04/19 02:19:39;;;;;;;3.13;1.70;;;;;;;;;;5056018;28;20045;-89
2022/04/19 02:22:06;;;;;;;3.00;1.83;;;;;;;;;;5052162;28;20140;-90
2022/04/19 02:24:34;;;;;;;4.13;1.42;;;;;;;;;;5049874;28;20047;-89
2022/04/19 02:27:00;;;;;;;2.67;1.70;;;;;;;;;;5059159;28;20044;-89
2022/04/19 02:29:28;;;;;;;2.17;1.40;;;;;;;;;;5058288;28;20214;-90
2022/04/19 02:31:55;;;;;;;5.57;1.63;;;;;;;;;;5054932;28;20053;-89
2022/04/19 02:34:22;;;;;;;3.10;1.50;;;;;;;;;;5055989;28;21906;-90
2022/04/19 02:36:48;;;;;;;3.03;1.27;;;;;;;;;;5037923;28;20637;-89
2022/04/19 02:39:15;;;;;;;2.47;1.50;;;;;;;;;;5058847;28;20048;-89
2022/04/19 02:41:42;;;;;;;2.58;1.30;;;;;;;;;;5052261;28;20041;-89
2022/04/19 02:44:09;;;;;;;2.55;1.38;;;;;;;;;;5055896;28;20044;-90
2022/04/19 02:46:37;;;;;;;4.10;2.00;;;;;;;;;;5062269;28;20067;-89
2022/04/19 02:49:04;;;;;;;3.65;1.30;;;;;;;;;;5061553;28;20052;-89
2022/04/19 02:51:32;;;;;;;4.13;1.70;;;;;;;;;;5059654;28;20049;-89
2022/04/19 02:53:59;;;;;;;2.83;1.67;;;;;;;;;;5058140;28;20049;-89
2022/04/19 02:56:25;;;;;;;2.97;1.60;;;;;;;;;;5056654;28;20051;-89
2022/04/19 02:58:52;;;;;;;2.70;1.50;;;;;;;;;;5061440;28;20059;-89
2022/04/19 03:01:19;;;;;;;3.72;1.88;;;;;;;;;;5061772;28;20786;-88
2022/04/19 03:03:47;;;;;;;3.45;1.90;;;;;;;;;;5057780;28;20056;-89
2022/04/19 03:06:14;;;;;;;2.78;1.40;;;;;;;;;;5056992;28;20131;-89
2022/04/19 03:08:40;;;;;;;2.67;1.63;;;;;;;;;;5056032;28;20063;-89
2022/04/19 03:11:07;;;;;;;4.70;1.95;;;;;;;;;;5057085;28;20075;-89
2022/04/19 03:13:35;;;;;;;2.50;1.65;;;;;;;;;;5055003;28;20052;-89
2022/04/19 03:16:02;;;;;;;4.00;1.70;;;;;;;;;;5059758;28;20124;-88
2022/04/19 03:18:30;;;;;;;3.28;1.77;;;;;;;;;;5056047;28;21740;-89
2022/04/19 03:20:58;;;;;;;5.03;2.40;;;;;;;;;;5062235;28;20709;-88
2022/04/19 03:28:53;;;;;;;3.33;1.50;;;;;;;;;;5058841;28;20452;-89
2022/04/19 03:31:22;;;;;;;3.90;1.50;;;;;;;;;;5060206;28;20118;-89
2022/04/19 03:33:52;;;;;;;3.22;1.77;;;;;;;;;;5055605;28;20283;-89
2022/04/19 03:36:20;;;;;;;3.92;2.13;;;;;;;;;;5063248;28;21092;-89
2022/04/19 03:38:47;;;;;;;4.68;1.90;;;;;;;;;;5053203;28;20571;-89
2022/04/19 03:41:13;;;;;;;3.33;1.60;;;;;;;;;;5056685;28;20643;-88
2022/04/19 03:43:41;;;;;;;3.90;1.77;;;;;;;;;;5054882;28;20048;-89
2022/04/19 03:46:08;;;;;;;3.95;1.55;;;;;;;;;;5056180;28;20072;-88
2022/04/19 03:48:35;;;;;;;6.45;2.08;;;;;;;;;;5057836;28;20059;-88
2022/04/19 03:51:02;;;;;;;2.47;1.45;;;;;;;;;;5058612;28;20653;-88
2022/04/19 03:53:30;;;;;;;2.88;1.63;;;;;;;;;;5061347;28;20555;-88
2022/04/19 03:55:58;;;;;;;2.83;1.45;;;;;;;;;;5052939;28;20037;-88
2022/04/19 03:58:27;;;;;;;3.17;1.85;;;;;;;;;;5065385;28;20140;-89
2022/04/19 04:00:53;;;;;;;6.05;2.05;;;;;;;;;;5058055;28;20131;-88
2022/04/19 04:03:20;;;;;;;3.42;2.05;;;;;;;;;;5054045;28;20053;-89
2022/04/19 04:05:47;;;;;;;3.65;1.92;;;;;;;;;;5054349;28;20056;-89
2022/04/19 04:08:14;;;;;;;3.65;1.65;;;;;;;;;;5059271;28;20056;-90
2022/04/19 04:10:42;;;;;;;4.43;1.90;;;;;;;;;;5050617;28;20048;-88
2022/04/19 04:13:09;;;;;;;4.90;2.03;;;;;;;;;;5057623;28;20056;-89
2022/04/19 04:15:36;;;;;;;7.97;2.25;;;;;;;;;;5065108;28;20066;-89
2022/04/19 04:18:02;;;;;;;7.78;2.08;;;;;;;;;;5056808;28;20700;-89
2022/04/19 04:20:29;;;;;;;4.20;2.08;;;;;;;;;;5063711;28;20048;-89
2022/04/19 04:22:56;;;;;;;3.67;2.15;;;;;;;;;;5063769;28;20045;-88
2022/04/19 04:25:22;;;;;;;3.38;1.70;;;;;;;;;;5059140;28;20041;-88
2022/04/19 04:27:50;;;;;;;3.85;1.88;;;;;;;;;;5056115;28;20044;-89
2022/04/19 04:30:17;;;;;;;5.10;2.50;;;;;;;;;;5053267;28;20497;-89
2022/04/19 04:32:44;;;;;;;4.13;2.00;;;;;;;;;;5055845;28;20041;-89
2022/04/19 04:35:11;;;;;;;4.15;1.40;;;;;;;;;;5058963;28;20044;-89
2022/04/19 04:37:38;;;;;;;3.53;1.30;;;;;;;;;;5059765;28;20056;-89
2022/04/19 04:40:06;;;;;;;3.70;1.65;;;;;;;;;;5062504;28;20048;-89
2022/04/19 04:42:33;;;;;;;4.22;1.63;;;;;;;;;;5060221;28;20051;-89
2022/04/19 04:45:02;;;;;;;3.00;1.65;;;;;;;;;;5054807;28;20051;-89
2022/04/19 04:50:15;;;;;;;3.17;1.50;;;;;;;;;;5058027;28;20130;-89
2022/04/19 04:52:41;;;;;;;3.60;1.70;;;;;;;;;;5056318;28;20048;-89
2022/04/19 04:55:08;;;;;;;2.45;1.40;;;;;;;;;;5058661;28;20109;-89
2022/04/19 04:57:35;;;;;;;9.15;1.80;;;;;;;;;;5060472;28;20044;-89
2022/04/19 05:00:04;;;;;;;3.85;2.22;;;;;;;;;;5054425;28;20067;-89
2022/04/19 05:02:34;;;;;;;3.63;1.58;;;;;;;;;;5054048;28;20041;-89
2022/04/19 05:05:02;;;;;;;4.65;1.50;;;;;;;;;;5061104;28;20059;-89
2022/04/19 05:07:29;;;;;;;5.63;1.77;;;;;;;;;;5054583;28;20132;-89
2022/04/19 05:09:59;;;;;;;3.35;1.52;;;;;;;;;;5056732;28;20052;-90
2022/04/19 05:12:26;;;;;;;6.43;1.70;;;;;;;;;;5053574;28;20052;-90
2022/04/19 05:14:53;;;;;;;3.83;1.63;;;;;;;;;;5063844;28;20052;-90
2022/04/19 05:17:25;;;;;;;5.80;1.80;;;;;;;;;;5059175;28;20052;-90
2022/04/19 05:19:53;;;;;;;3.13;1.40;;;;;;;;;;5054462;28;20090;-90
2022/04/19 05:22:22;;;;;;;4.22;1.65;;;;;;;;;;5054484;28;20045;-90
2022/04/19 05:24:52;;;;;;;4.05;1.65;;;;;;;;;;5058873;28;20538;-90
2022/04/19 05:27:18;;;;;;;2.88;1.30;;;;;;;;;;5057824;28;20045;-90
2022/04/19 05:29:45;;;;;;;6.35;2.00;;;;;;;;;;5064043;28;20045;-89
2022/04/19 05:32:11;;;;;;;4.78;2.65;;;;;;;;;;5058141;28;20044;-89
2022/04/19 05:34:39;;;;;;;6.15;3.15;;;;;;;;;;5054650;28;20048;-89
2022/04/19 05:37:07;;;;;;;8.05;2.97;;;;;;;;;;5053539;28;20044;-88
2022/04/19 05:39:33;;;;;;;11.63;3.22;;;;;;;;;;5051535;28;20080;-89
2022/04/19 05:42:02;;;;;;;10.95;3.53;;;;;;;;;;5066739;28;20059;-89
2022/04/19 05:44:28;;;;;;;6.00;2.50;;;;;;;;;;5063638;28;20044;-89
2022/04/19 05:46:55;;;;;;;9.75;3.25;;;;;;;;;;5064992;28;20044;-88
2022/04/19 05:49:21;;;;;;;10.07;3.75;;;;;;;;;;5049570;28;20052;-89
2022/04/19 05:51:49;;;;;;;14.82;2.40;;;;;;;;;;5057952;28;20382;-88
2022/04/19 05:54:16;;;;;;;3.88;1.80;;;;;;;;;;5066245;28;20052;-89
2022/04/19 05:56:42;;;;;;;5.93;1.75;;;;;;;;;;5054632;28;20041;-89
2022/04/19 05:59:09;;;;;;;6.13;1.70;;;;;;;;;;5066273;28;20055;-88
2022/04/19 06:07:01;;;;;;;8.25;3.70;;;;;;;;;;5058250;28;20059;-89
2022/04/19 06:09:28;;;;;;;8.30;4.65;;;;;;;;;;5057234;28;20105;-89
2022/04/19 06:11:54;;;;;;;8.70;4.20;;;;;;;;;;5059677;28;20135;-89
2022/04/19 06:14:21;;;;;;;9.80;4.57;;;;;;;;;;5063809;28;20056;-89
2022/04/19 06:16:47;;;;;;;9.85;4.95;;;;;;;;;;5062517;28;20053;-90
2022/04/19 06:19:14;;;;;;;9.95;4.38;;;;;;;;;;5054727;28;20822;-89
2022/04/19 06:21:41;;;;;;;11.40;5.30;;;;;;;;;;5067234;28;20102;-90
2022/04/19 06:24:10;;;;;;;6.68;2.70;;;;;;;;;;5060455;28;20041;-89
2022/04/19 06:26:37;;;;;;;6.38;3.85;;;;;;;;;;5066917;28;20499;-90
2022/04/19 06:29:04;;;;;;;10.98;4.55;;;;;;;;;;5069612;28;20048;-90
2022/04/19 06:31:31;;;;;;;6.88;3.25;;;;;;;;;;5064578;28;20121;-89
2022/04/19 06:33:58;;;;;;;8.32;3.42;;;;;;;;;;5079669;28;20094;-89
2022/04/19 06:36:25;;;;;;;10.38;3.75;;;;;;;;;;5065489;28;20060;-88
2022/04/19 06:38:51;;;;;;;6.75;3.35;;;;;;;;;;5075392;28;20044;-89
2022/04/19 06:41:20;;;;;;;6.68;3.00;;;;;;;;;;5052533;28;20041;-87
2022/04/19 06:43:46;;;;;;;5.70;3.25;;;;;;;;;;5056496;28;20149;-90
2022/04/19 06:46:15;;;;;;;5.32;2.75;;;;;;;;;;5063219;28;20075;-87
2022/04/19 06:48:41;;;;;;;6.80;3.15;;;;;;;;;;5064477;28;20045;-87
2022/04/19 06:51:09;;;;;;;4.35;2.70;;;;;;;;;;5054896;28;20045;-90
2022/04/19 06:53:36;;;;;;;5.07;2.90;;;;;;;;;;5057788;28;20051;-87
2022/04/19 06:56:04;;;;;;;8.77;2.90;;;;;;;;;;5060442;28;20048;-90
2022/04/19 06:58:32;;;;;;;11.68;3.03;;;;;;;;;;5058970;28;20495;-90
2022/04/19 07:00:58;;;;;;;5.72;3.35;;;;;;;;;;5067217;28;20045;-90
2022/04/19 07:03:25;;;;;;;9.85;3.13;;;;;;;;;;5054402;28;20048;-87
2022/04/19 07:05:51;;;;;;;6.20;3.28;;;;;;;;;;5065165;28;20053;-89
2022/04/19 07:08:18;;;;;;;9.60;2.97;;;;;;;;;;5066045;28;20052;-87
2022/04/19 07:10:44;;;;;;;5.32;2.60;;;;;;;;;;5070191;28;20531;-87
2022/04/19 07:13:11;;;;;;;8.80;3.75;;;;;;;;;;5067053;28;20051;-87
2022/04/19 07:15:39;;;;;;;5.00;3.30;;;;;;;;;;5059223;28;20110;-88
2022/04/19 07:18:06;;;;;;;9.60;3.72;;;;;;;;;;5057504;28;20060;-88
2022/04/19 07:28:45;;;;;;;5.93;3.00;;;;;;;;;;5061457;28;20369;-89
2022/04/19 07:31:14;;;;;;;8.98;3.35;;;;;;;;;;5073480;28;20689;-89
2022/04/19 07:33:40;;;;;;;6.72;3.83;;;;;;;;;;5056506;28;20037;-88
2022/04/19 07:36:07;;;;;;;5.05;3.08;;;;;;;;;;5055371;28;20051;-89
2022/04/19 07:38:34;;;;;;;5.70;3.25;;;;;;;;;;5061040;28;20052;-88
2022/04/19 07:41:02;;;;;;;6.18;3.35;;;;;;;;;;5067579;28;20045;-89
2022/04/19 07:43:29;;;;;;;4.55;2.92;;;;;;;;;;5066752;28;20049;-88
2022/04/19 07:45:55;;;;;;;4.93;2.95;;;;;;;;;;5062759;28;20041;-88
2022/04/19 07:48:26;;;;;;;5.18;3.10;;;;;;;;;;5065033;28;20037;-89
2022/04/19 07:50:52;;;;;;;6.00;2.85;;;;;;;;;;5062515;28;20049;-89
2022/04/19 07:53:19;;;;;;;5.05;2.80;;;;;;;;;;5061800;28;20056;-88
2022/04/19 07:55:45;;;;;;;7.82;3.10;;;;;;;;;;5067322;28;20060;-89
2022/04/19 07:58:12;;;;;;;7.30;3.10;;;;;;;;;;5062163;28;20056;-88
2022/04/19 08:00:38;;;;;;;5.40;2.85;;;;;;;;;;5056474;28;20041;-88
2022/04/19 08:03:05;;;;;;;5.13;3.13;;;;;;;;;;5062933;28;20732;-88
2022/04/19 08:05:33;;;;;;;5.10;3.17;;;;;;;;;;5056488;28;20037;-88
2022/04/19 08:08:00;;;;;;;6.85;2.70;;;;;;;;;;5059948;28;20051;-88
2022/04/19 08:10:27;;;;;;;6.90;3.10;;;;;;;;;;5060431;28;20067;-88
2022/04/19 08:12:53;;;;;;;5.32;3.88;;;;;;;;;;5063146;28;20045;-88
2022/04/19 08:15:20;;;;;;;5.88;2.70;;;;;;;;;;5067387;28;20476;-88
2022/04/19 08:17:46;;;;;;;6.03;3.15;;;;;;;;;;5067604;28;20048;-89
2022/04/19 08:20:14;;;;;;;4.80;2.67;;;;;;;;;;5067466;28;20049;-89
2022/04/19 08:22:42;;;;;;;4.70;2.88;;;;;;;;;;5061284;28;20095;-89
2022/04/19 08:25:10;;;;;;;3.95;2.30;;;;;;;;;;5070375;28;20047;-89
2022/04/19 08:27:39;;;;;;;7.63;3.05;;;;;;;;;;5060173;28;20048;-88
2022/04/19 08:30:08;;;;;;;6.82;2.58;;;;;;;;;;5056999;28;20748;-89
2022/04/19 08:32:34;;;;;;;6.68;3.05;;;;;;;;;;5061402;28;20049;-88
2022/04/19 08:35:01;;;;;;;3.88;2.22;;;;;;;;;;5066966;28;20063;-88
2022/04/19 08:37:30;;;;;;;6.15;2.85;;;;;;;;;;5063737;28;20049;-89
2022/04/19 08:39:58;;;;;;;5.25;2.58;;;;;;;;;;5066316;28;20120;-88
2022/04/19 08:42:24;;;;;;;4.68;2.72;;;;;;;;;;5051458;28;20450;-88
2022/04/19 08:44:51;;;;;;;4.82;2.40;;;;;;;;;;5060607;28;20041;-89
2022/04/19 08:47:19;;;;;;;5.13;2.50;;;;;;;;;;5063519;28;20048;-88
2022/04/19 08:49:46;;;;;;;4.45;2.60;;;;;;;;;;5063770;28;20460;-87
2022/04/19 08:52:14;;;;;;;5.03;2.42;;;;;;;;;;5060270;28;20056;-88
2022/04/19 08:57:32;;;;;;;6.10;3.10;;;;;;;;;;5058834;28;20093;-88
2022/04/19 09:00:01;;;;;;;5.35;2.90;;;;;;;;;;5052570;28;20055;-88
2022/04/19 09:02:29;;;;;;;5.03;2.95;;;;;;;;;;5053477;28;20053;-88
2022/04/19 09:05:12;;;;;;;5.75;3.15;;;;;;;;;;5058932;28;20041;-89
2022/04/19 09:07:39;;;;;;;4.90;2.70;;;;;;;;;;5067771;28;20323;-89
2022/04/19 09:10:07;;;;;;;4.97;2.80;;;;;;;;;;5063814;28;20063;-88
2022/04/19 09:12:35;;;;;;;4.65;2.60;;;;;;;;;;5052034;28;20041;-88
2022/04/19 09:15:06;;;;;;;7.97;2.92;;;;;;;;;;5066860;28;20077;-89
2022/04/19 09:17:34;;;;;;;5.93;3.35;;;;;;;;;;5061214;28;20127;-89
2022/04/19 09:20:11;;;;;;;5.45;2.80;;;;;;;;;;5060216;28;20443;-88
2022/04/19 09:22:39;;;;;;;4.85;3.03;;;;;;;;;;5067052;28;20102;-89
2022/04/19 09:25:17;;;;;;;4.30;3.03;;;;;;;;;;5060826;28;20940;-89
2022/04/19 09:27:47;;;;;;;4.32;2.47;;;;;;;;;;5041499;28;20102;-90
2022/04/19 09:30:18;;;;;;;5.32;3.03;;;;;;;;;;5056417;28;20052;-90
2022/04/19 09:33:08;;;;;;;4.10;2.20;;;;;;;;;;5057317;28;20090;-90
2022/04/19 09:35:36;;;;;;;5.82;2.90;;;;;;;;;;5062717;28;20048;-90
2022/04/19 09:38:03;;;;;;;5.35;2.90;;;;;;;;;;5060407;28;20068;-90
2022/04/19 09:40:31;;;;;;;6.00;2.70;;;;;;;;;;5061431;28;20049;-90
2022/04/19 09:43:08;;;;;;;4.47;2.67;;;;;;;;;;5058396;28;20951;-91
2022/04/19 09:45:45;;;;;;;4.68;3.08;;;;;;;;;;5058991;28;20052;-89
2022/04/19 09:48:16;;;;;;;5.65;3.00;;;;;;;;;;5059551;28;20059;-90
2022/04/19 09:50:48;;;;;;;6.50;3.47;;;;;;;;;;5058279;28;20052;-90
2022/04/19 09:53:18;;;;;;;5.95;3.28;;;;;;;;;;5058284;28;20106;-90
2022/04/19 09:55:47;;;;;;;5.25;3.03;;;;;;;;;;5051473;28;20051;-90
2022/04/19 09:58:15;;;;;;;4.57;3.15;;;;;;;;;;5059673;28;20052;-90
2022/04/19 10:00:43;;;;;;;5.13;3.15;;;;;;;;;;5054772;28;20056;-90
2022/04/19 10:08:39;;;;;;;5.32;2.92;;;;;;;;;;5060154;28;20203;-90
2022/04/19 10:11:07;;;;;;;4.22;2.75;;;;;;;;;;5053210;28;20441;-89
2022/04/19 10:13:36;;;;;;;4.22;2.45;;;;;;;;;;5057827;28;20036;-91
2022/04/19 10:16:04;;;;;;;5.32;3.30;;;;;;;;;;5052864;28;20040;-90
2022/04/19 10:18:30;;;;;;;5.75;3.10;;;;;;;;;;5071259;28;20052;-90
2022/04/19 10:20:59;;;;;;;4.13;2.53;;;;;;;;;;5064921;28;20056;-90
2022/04/19 10:23:36;;;;;;;3.42;2.22;;;;;;;;;;5055342;28;20086;-90
2022/04/19 10:26:14;;;;;;;4.25;2.70;;;;;;;;;;5054102;28;20048;-89
2022/04/19 10:28:42;;;;;;;5.97;3.50;;;;;;;;;;5058755;28;20681;-90
2022/04/19 10:31:09;;;;;;;4.72;2.88;;;;;;;;;;5059823;28;20053;-90
2022/04/19 10:33:48;;;;;;;8.10;3.85;;;;;;;;;;5058993;28;20400;-91
2022/04/19 10:36:15;;;;;;;4.68;3.03;;;;;;;;;;5057790;28;20055;-90
2022/04/19 10:38:43;;;;;;;4.85;2.70;;;;;;;;;;5059938;28;20044;-90
2022/04/19 10:41:10;;;;;;;4.68;2.42;;;;;;;;;;5058120;28;20712;-91
2022/04/19 10:43:37;;;;;;;5.28;3.40;;;;;;;;;;5061191;28;20041;-91
2022/04/19 10:46:23;;;;;;;6.07;3.42;;;;;;;;;;5056840;28;20115;-91
2022/04/19 10:49:23;;;;;;;4.63;3.10;;;;;;;;;;5063797;28;20053;-91
2022/04/19 10:51:59;;;;;;;4.63;3.00;;;;;;;;;;5072123;28;20051;-92
2022/04/19 10:54:44;;;;;;;;;;;;;;;;;;5063348;28;20101;-90
2022/04/19 10:58:05;;;;;;;4.15;2.60;;;;;;;;;;5052475;28;19935;-91
2022/04/19 11:00:19;;;;;;;4.53;2.78;;;;;;;;;;5064918;28;20590;-90
2022/04/19 11:02:56;;;;;;;5.65;2.65;;;;;;;;;;5058429;28;20045;-89
2022/04/19 11:05:42;;;;;;;4.88;2.70;;;;;;;;;;5060168;28;20090;-91
2022/04/19 11:08:20;;;;;;;4.07;2.47;;;;;;;;;;5063907;28;20056;-91
2022/04/19 11:10:47;;;;;;;4.00;2.47;;;;;;;;;;5068861;28;20168;-92
2022/04/19 11:13:19;;;;;;;5.93;2.72;;;;;;;;;;5050613;28;20076;-90
2022/04/19 11:16:07;;;;;;;4.90;2.88;;;;;;;;;;5069175;28;20052;-92
2022/04/19 11:18:36;;;;;;;5.03;2.78;;;;;;;;;;5067382;28;20056;-91
2022/04/19 11:21:04;;;;;;;4.28;2.53;;;;;;;;;;5061524;28;20052;-91
2022/04/19 11:23:43;;;;;;;4.60;2.45;;;;;;;;;;5063536;28;20059;-91
2022/04/19 11:26:42;;;;;;;6.30;2.90;;;;;;;;;;5066167;28;20032;-91
2022/04/19 11:29:16;;;;;;;4.15;2.40;;;;;;;;;;5064700;28;20056;-91
2022/04/19 11:32:07;;;;;;;4.18;2.70;;;;;;;;;;5067699;28;20094;-91
2022/04/19 11:34:35;;;;;;;3.78;2.13;;;;;;;;;;5064256;28;20040;-90
2022/04/19 11:37:04;;;;;;;5.20;3.05;;;;;;;;;;5064585;28;20071;-90
2022/04/19 11:47:56;;;;;;;4.07;2.45;;;;;;;;;;5057829;28;20697;-89
2022/04/19 11:50:30;;;;;;;3.97;2.53;;;;;;;;;;5065402;28;20044;-90
2022/04/19 11:52:57;;;;;;;4.47;2.85;;;;;;;;;;5066711;28;20788;-91
2022/04/19 11:55:25;;;;;;;4.72;3.10;;;;;;;;;;5058464;28;20481;-92
2022/04/19 11:58:02;;;;;;;5.57;3.20;;;;;;;;;;5061904;28;20057;-91
2022/04/19 12:00:29;;;;;;;5.85;3.33;;;;;;;;;;5056739;28;20052;-88
2022/04/19 12:02:56;;;;;;;4.57;2.83;;;;;;;;;;5069423;28;20047;-89
2022/04/19 12:05:26;;;;;;;3.95;2.80;;;;;;;;;;5058497;28;20041;-89
2022/04/19 12:07:55;;;;;;;5.50;3.47;;;;;;;;;;5065937;28;20041;-89
2022/04/19 12:10:22;;;;;;;4.80;3.47;;;;;;;;;;5059126;28;20048;-89
2022/04/19 12:12:52;;;;;;;5.43;3.17;;;;;;;;;;5061096;28;20060;-89
2022/04/19 12:15:40;;;;;;;5.07;3.05;;;;;;;;;;5060106;28;20043;-89
2022/04/19 12:18:08;;;;;;;6.13;3.85;;;;;;;;;;5064214;28;20139;-89
2022/04/19 12:20:45;;;;;;;4.78;3.38;;;;;;;;;;5038687;28;20040;-89
2022/04/19 12:23:28;;;;;;;4.45;2.85;;;;;;;;;;5061190;28;20050;-90
2022/04/19 12:25:59;;;;;;;3.83;2.97;;;;;;;;;;5056853;28;20045;-90
2022/04/19 12:28:35;;;;;;;4.90;3.03;;;;;;;;;;5057947;28;20044;-88
2022/04/19 12:31:02;;;;;;;6.00;3.40;;;;;;;;;;5057094;28;20048;-90
2022/04/19 12:33:28;;;;;;;4.85;3.08;;;;;;;;;;5058772;28;21002;-90
2022/04/19 12:35:55;;;;;;;4.82;2.72;;;;;;;;;;5061975;28;20057;-90
2022/04/19 12:38:31;;;;;;;6.07;3.20;;;;;;;;;;5062383;28;20098;-91
2022/04/19 12:40:58;;;;;;;4.63;2.97;;;;;;;;;;5062696;28;20067;-89
2022/04/19 12:43:42;;;;;;;5.85;2.70;;;;;;;;;;5064598;28;20056;-89
2022/04/19 12:46:09;;;;;;;5.15;2.33;;;;;;;;;;5056692;28;20750;-90
2022/04/19 12:48:35;;;;;;;4.68;2.65;;;;;;;;;;5062374;28;20641;-89
2022/04/19 12:51:03;;;;;;;3.88;2.85;;;;;;;;;;5061671;28;20041;-91
2022/04/19 12:53:32;;;;;;;4.10;2.60;;;;;;;;;;5061739;28;20537;-90
2022/04/19 12:56:10;;;;;;;5.03;3.33;;;;;;;;;;5056873;28;20495;-89
2022/04/19 12:58:43;;;;;;;4.70;2.75;;;;;;;;;;5059172;28;20036;-89
2022/04/19 13:01:09;;;;;;;3.45;2.38;;;;;;;;;;5062680;28;20059;-90
2022/04/19 13:03:38;;;;;;;4.18;2.28;;;;;;;;;;5064190;28;20778;-90
2022/04/19 13:14:20;;;;;;;3.67;2.28;;;;;;;;;;5058817;28;20055;-90
2022/04/19 13:16:47;;;;;;;3.28;2.00;;;;;;;;;;5068805;28;20044;-90
2022/04/19 13:19:14;;;;;;;4.50;2.70;;;;;;;;;;5063314;28;20489;-90
2022/04/19 13:21:40;;;;;;;5.05;2.42;;;;;;;;;;5066815;28;20057;-90
2022/04/19 13:24:09;;;;;;;3.03;1.95;;;;;;;;;;5072112;28;20055;-90
2022/04/19 13:26:36;;;;;;;2.92;1.85;;;;;;;;;;5042818;28;20052;-90
2022/04/19 13:29:02;;;;;;;3.47;2.28;;;;;;;;;;5060382;28;20060;-91
2022/04/19 13:31:31;;;;;;;3.30;2.10;;;;;;;;;;5059003;28;20053;-90
2022/04/19 13:34:02;;;;;;;4.18;2.40;;;;;;;;;;5049872;28;20106;-90
2022/04/19 13:36:29;;;;;;;5.07;2.05;;;;;;;;;;5061867;28;20049;-89
2022/04/19 13:38:56;;;;;;;4.45;2.88;;;;;;;;;;5064509;28;20056;-90
2022/04/19 13:41:26;;;;;;;4.03;2.15;;;;;;;;;;5067804;28;20051;-88
2022/04/19 13:43:53;;;;;;;3.25;2.20;;;;;;;;;;5041472;28;20639;-91
2022/04/19 13:46:20;;;;;;;5.07;2.35;;;;;;;;;;5064130;28;20059;-91
2022/04/19 13:48:46;;;;;;;4.32;2.20;;;;;;;;;;5066166;28;20044;-91
2022/04/19 13:51:13;;;;;;;3.40;2.22;;;;;;;;;;5060376;28;20052;-91
2022/04/19 13:53:39;;;;;;;3.45;1.90;;;;;;;;;;5075135;28;20044;-90
2022/04/19 13:56:06;;;;;;;3.17;2.47;;;;;;;;;;5053544;28;20061;-90
2022/04/19 13:58:34;;;;;;;3.95;2.20;;;;;;;;;;5057234;28;20051;-90
2022/04/19 14:01:02;;;;;;;2.92;1.90;;;;;;;;;;5055872;28;20695;-90
2022/04/19 14:03:28;;;;;;;5.03;1.98;;;;;;;;;;5061782;28;20154;-91
2022/04/19 14:05:55;;;;;;;2.63;1.80;;;;;;;;;;5064999;28;20040;-90
2022/04/19 14:08:21;;;;;;;4.03;1.88;;;;;;;;;;5062014;28;20059;-90
2022/04/19 14:10:48;;;;;;;4.07;2.28;;;;;;;;;;5063914;28;20052;-90
2022/04/19 14:13:14;;;;;;;6.10;2.10;;;;;;;;;;5060936;28;20044;-90
2022/04/19 14:15:42;;;;;;;6.90;2.17;;;;;;;;;;5067002;28;20668;-90
2022/04/19 14:18:09;;;;;;;3.20;1.90;;;;;;;;;;5066338;28;20052;-90
2022/04/19 14:20:36;;;;;;;4.75;1.48;;;;;;;;;;5067731;28;20036;-91
2022/04/19 14:23:03;;;;;;;3.63;1.80;;;;;;;;;;5061634;28;20416;-91
2022/04/19 14:25:30;;;;;;;3.53;1.90;;;;;;;;;;5062915;28;20458;-90
2022/04/19 14:27:56;;;;;;;3.10;1.95;;;;;;;;;;5061734;28;20128;-91
2022/04/19 14:33:18;;;;;;;3.20;1.48;;;;;;;;;;5063592;28;20079;-91
2022/04/19 14:35:46;;;;;;;4.28;1.52;;;;;;;;;;5058541;28;20055;-91
2022/04/19 14:38:12;;;;;;;4.65;1.80;;;;;;;;;;5065123;28;20113;-91
2022/04/19 14:40:39;;;;;;;3.22;1.55;;;;;;;;;;5068706;28;20059;-91
2022/04/19 14:43:05;;;;;;;3.00;1.70;;;;;;;;;;5070273;28;20041;-91
2022/04/19 14:45:32;;;;;;;2.90;1.60;;;;;;;;;;5068716;28;20508;-91
2022/04/19 14:48:00;;;;;;;4.18;1.75;;;;;;;;;;5069767;28;20041;-90
2022/04/19 14:50:28;;;;;;;4.03;1.48;;;;;;;;;;5052821;28;20052;-91
2022/04/19 14:52:54;;;;;;;3.83;1.58;;;;;;;;;;5066106;28;20492;-90
2022/04/19 14:55:21;;;;;;;2.47;1.40;;;;;;;;;;5058123;28;20131;-91
2022/04/19 14:57:47;;;;;;;2.03;1.30;;;;;;;;;;5066933;28;20049;-92
2022/04/19 15:00:15;;;;;;;2.63;1.27;;;;;;;;;;5064251;28;20048;-92
2022/04/19 15:02:41;;;;;;;2.17;1.40;;;;;;;;;;5069295;28;20041;-92
2022/04/19 15:07:59;;;;;;;2.10;1.40;;;;;;;;;;5062151;28;20037;-92
2022/04/19 15:10:25;;;;;;;2.15;1.40;;;;;;;;;;5044374;28;20063;-92
2022/04/19 15:12:52;;;;;;;6.00;1.70;;;;;;;;;;5057058;28;20060;-92
2022/04/19 15:15:35;;;;;;;1.63;1.10;;;;;;;;;;5065932;28;20128;-91
2022/04/19 15:18:07;;;;;;;2.13;1.40;;;;;;;;;;5067317;28;20084;-91
2022/04/19 15:20:34;;;;;;;2.78;1.17;;;;;;;;;;5062153;28;20049;-91
2022/04/19 15:23:02;;;;;;;3.22;1.65;;;;;;;;;;5071270;28;20080;-92
2022/04/19 15:25:29;;;;;;;4.95;1.90;;;;;;;;;;5053552;28;20041;-92
2022/04/19 15:27:55;;;;;;;2.88;1.70;;;;;;;;;;5068865;28;20052;-92
2022/04/19 15:30:25;;;;;;;2.45;1.50;;;;;;;;;;5066271;28;20049;-91
2022/04/19 15:32:52;;;;;;;4.78;1.92;;;;;;;;;;5071106;28;20170;-91
2022/04/19 15:35:19;;;;;;;3.25;1.85;;;;;;;;;;5064983;28;20041;-90
2022/04/19 15:37:45;;;;;;;2.33;1.27;;;;;;;;;;5067490;28;20049;-91
2022/04/19 15:40:14;;;;;;;3.72;1.70;;;;;;;;;;5060060;28;20055;-91
2022/04/19 15:42:42;;;;;;;3.13;1.63;;;;;;;;;;5063224;28;20045;-91
2022/04/19 15:45:10;;;;;;;2.10;1.30;;;;;;;;;;5064908;28;20056;-91
2022/04/19 15:47:41;;;;;;;1.83;1.10;;;;;;;;;;5048632;28;20049;-91